createdAt,value
2022-10-24T00:01:26.169Z,15.25
2022-10-24T00:03:53.658Z,15.00
2022-10-24T00:06:21.525Z,16.05
2022-10-24T00:08:49.581Z,15.15
2022-10-24T00:11:25.439Z,14.40
2022-10-24T00:13:56.031Z,15.63
2022-10-24T00:16:23.882Z,15.10
2022-10-24T00:18:51.368Z,15.13
2022-10-24T00:21:19.173Z,14.63
2022-10-24T00:23:46.827Z,15.25
2022-10-24T00:26:14.280Z,16.25
2022-10-24T00:28:41.706Z,14.95
2022-10-24T00:31:17.880Z,16.40
2022-10-24T00:33:46.232Z,15.98
2022-10-24T00:36:17.902Z,15.60
2022-10-24T00:38:45.713Z,16.05
2022-10-24T00:41:23.859Z,15.07
2022-10-24T00:43:51.881Z,16.08
2022-10-24T00:46:20.852Z,16.40
2022-10-24T00:48:53.899Z,16.17
2022-10-24T00:51:31.393Z,15.40
2022-10-24T00:54:05.402Z,14.60
2022-10-24T00:56:41.929Z,16.05
2022-10-24T00:59:11.244Z,16.05
2022-10-24T01:01:39.843Z,16.25
2022-10-24T01:04:11.688Z,16.30
2022-10-24T01:07:05.480Z,16.15
2022-10-24T01:10:03.508Z,17.17
2022-10-24T01:13:05.634Z,16.05
2022-10-24T01:15:51.099Z,17.27
2022-10-24T01:21:34.579Z,19.25
2022-10-24T01:24:55.098Z,18.13
2022-10-24T01:27:39.313Z,18.98
2022-10-24T01:30:16.117Z,18.08
2022-10-24T01:33:15.984Z,20.38
2022-10-24T01:36:09.469Z,18.52
2022-10-24T01:38:53.240Z,20.88
2022-10-24T01:41:26.369Z,19.50
2022-10-24T01:44:03.239Z,19.83
2022-10-24T01:46:40.593Z,19.33
2022-10-24T01:49:20.207Z,19.13
2022-10-24T01:51:53.757Z,19.75
2022-10-24T01:54:21.586Z,19.23
2022-10-24T01:56:49.721Z,19.25
2022-10-24T01:59:28.170Z,19.60
2022-10-24T02:02:12.513Z,19.95
2022-10-24T02:05:36.466Z,19.80
2022-10-24T02:08:13.587Z,19.67
2022-10-24T02:10:59.499Z,20.75
2022-10-24T02:13:55.329Z,20.95
2022-10-24T02:16:23.096Z,21.15
2022-10-24T02:18:55.432Z,19.70
2022-10-24T02:21:38.301Z,19.58
2022-10-24T02:24:36.900Z,21.58
2022-10-24T02:27:18.698Z,21.35
2022-10-24T02:30:13.579Z,21.20
2022-10-24T02:32:54.734Z,21.05
2022-10-24T02:35:29.947Z,22.13
2022-10-24T02:38:19.770Z,22.92
2022-10-24T02:40:50.522Z,20.63
2022-10-24T02:43:21.623Z,21.17
2022-10-24T02:45:52.234Z,22.10
2022-10-24T02:48:27.613Z,20.50
2022-10-24T02:50:55.048Z,22.17
2022-10-24T02:53:26.194Z,21.65
2022-10-24T02:55:54.072Z,20.33
2022-10-24T02:58:22.496Z,21.50
2022-10-24T03:00:49.931Z,23.70
2022-10-24T03:03:17.596Z,20.95
2022-10-24T03:05:45.139Z,21.20
2022-10-24T03:08:12.993Z,22.15
2022-10-24T03:10:41.062Z,22.08
2022-10-24T03:13:08.526Z,23.40
2022-10-24T03:15:35.800Z,22.80
2022-10-24T03:18:03.100Z,24.45
2022-10-24T03:20:30.766Z,21.77
2022-10-24T03:22:58.193Z,20.85
2022-10-24T03:25:25.644Z,21.08
2022-10-24T03:27:53.253Z,21.05
2022-10-24T03:30:20.682Z,21.80
2022-10-24T03:32:48.277Z,20.17
2022-10-24T03:35:16.609Z,21.20
2022-10-24T03:37:44.517Z,22.23
2022-10-24T03:40:12.645Z,21.60
2022-10-24T03:42:40.108Z,21.50
2022-10-24T03:45:08.920Z,20.48
2022-10-24T03:47:36.328Z,21.52
2022-10-24T03:50:05.942Z,20.92
2022-10-24T03:52:33.671Z,19.60
2022-10-24T03:55:03.923Z,22.90
2022-10-24T03:57:31.354Z,21.00
2022-10-24T03:59:58.635Z,20.92
2022-10-24T04:02:25.863Z,21.27
2022-10-24T04:04:53.243Z,21.02
2022-10-24T04:07:20.416Z,21.10
2022-10-24T04:09:47.796Z,22.35
2022-10-24T04:12:15.897Z,19.52
2022-10-24T04:14:43.155Z,20.77
2022-10-24T04:17:33.820Z,21.65
2022-10-24T04:20:01.392Z,21.27
2022-10-24T04:22:28.871Z,21.85
2022-10-24T04:24:57.230Z,22.17
2022-10-24T04:27:24.895Z,20.98
2022-10-24T04:29:52.353Z,21.48
2022-10-24T04:32:19.669Z,20.67
2022-10-24T04:34:47.144Z,23.90
2022-10-24T04:37:15.566Z,22.80
2022-10-24T04:39:42.880Z,22.17
2022-10-24T04:42:10.381Z,22.58
2022-10-24T04:44:37.717Z,21.65
2022-10-24T04:47:05.059Z,21.67
2022-10-24T04:49:32.519Z,21.75
2022-10-24T04:51:59.706Z,21.73
2022-10-24T04:54:27.053Z,21.55
2022-10-24T04:56:54.296Z,21.13
2022-10-24T04:59:21.534Z,22.30
2022-10-24T05:01:49.061Z,21.35
2022-10-24T05:04:16.526Z,22.15
2022-10-24T05:06:45.049Z,20.20
2022-10-24T05:09:14.532Z,22.20
2022-10-24T05:11:42.186Z,21.83
2022-10-24T05:14:09.966Z,21.83
2022-10-24T05:16:37.388Z,21.65
2022-10-24T05:19:04.697Z,21.33
2022-10-24T05:21:33.787Z,20.85
2022-10-24T05:24:01.100Z,22.13
2022-10-24T05:26:28.562Z,21.38
2022-10-24T05:28:55.820Z,21.45
2022-10-24T05:31:23.121Z,22.85
2022-10-24T05:33:50.276Z,21.35
2022-10-24T05:36:17.543Z,23.23
2022-10-24T05:38:44.788Z,21.00
2022-10-24T05:41:12.029Z,22.60
2022-10-24T05:43:39.270Z,21.48
2022-10-24T05:46:07.326Z,21.95
2022-10-24T05:48:35.772Z,21.95
2022-10-24T05:51:02.987Z,19.98
2022-10-24T05:53:30.198Z,20.95
2022-10-24T05:55:57.340Z,20.60
2022-10-24T05:58:24.956Z,21.38
2022-10-24T06:00:54.001Z,20.73
2022-10-24T06:03:23.027Z,22.45
2022-10-24T06:05:50.950Z,20.05
2022-10-24T06:08:18.170Z,21.48
2022-10-24T06:10:50.976Z,20.63
2022-10-24T06:13:18.393Z,21.63
2022-10-24T06:15:45.802Z,21.55
2022-10-24T06:18:13.267Z,21.35
2022-10-24T06:20:40.429Z,21.70
2022-10-24T06:23:07.873Z,20.80
2022-10-24T06:25:35.332Z,20.27
2022-10-24T06:28:02.618Z,20.70
2022-10-24T06:30:29.872Z,21.80
2022-10-24T06:32:57.008Z,21.75
2022-10-24T06:35:24.131Z,21.48
2022-10-24T06:37:51.637Z,22.08
2022-10-24T06:40:19.175Z,21.25
2022-10-24T06:42:46.792Z,21.48
2022-10-24T06:45:14.488Z,20.65
2022-10-24T06:47:42.165Z,19.83
2022-10-24T06:50:09.906Z,20.13
2022-10-24T06:52:37.730Z,20.77
2022-10-24T06:55:06.034Z,21.27
2022-10-24T06:57:33.197Z,19.55
2022-10-24T07:00:00.368Z,20.13
2022-10-24T07:02:27.836Z,18.85
2022-10-24T07:04:57.480Z,18.58
2022-10-24T07:07:24.923Z,18.80
2022-10-24T07:09:56.513Z,17.30
2022-10-24T07:12:25.636Z,18.08
2022-10-24T07:14:53.085Z,18.25
2022-10-24T07:17:20.620Z,17.65
2022-10-24T07:19:56.405Z,18.60
2022-10-24T07:22:24.491Z,18.90
2022-10-24T07:24:55.884Z,21.40
2022-10-24T07:27:24.303Z,17.92
2022-10-24T07:29:51.626Z,16.70
2022-10-24T07:32:20.822Z,18.27
2022-10-24T07:34:48.202Z,17.25
2022-10-24T07:37:17.915Z,21.65
2022-10-24T07:39:46.580Z,17.23
2022-10-24T07:42:15.547Z,21.00
2022-10-24T07:44:42.841Z,17.38
2022-10-24T07:47:10.222Z,18.17
2022-10-24T07:49:37.633Z,17.00
2022-10-24T07:52:05.924Z,15.65
2022-10-24T07:54:36.301Z,17.60
2022-10-24T07:57:05.233Z,15.93
2022-10-24T07:59:47.744Z,15.65
2022-10-24T08:02:17.391Z,17.25
2022-10-24T08:04:44.946Z,16.05
2022-10-24T08:07:13.631Z,15.18
2022-10-24T08:09:45.423Z,15.73
2022-10-24T08:12:13.027Z,15.80
2022-10-24T08:14:42.024Z,16.13
2022-10-24T08:17:10.137Z,16.02
2022-10-24T08:19:43.653Z,15.85
2022-10-24T08:22:12.338Z,15.82
2022-10-24T08:24:39.452Z,17.42
2022-10-24T08:27:06.675Z,17.23
2022-10-24T08:29:33.974Z,17.13
2022-10-24T08:32:01.288Z,18.10
2022-10-24T08:34:28.738Z,16.38
2022-10-24T08:36:55.941Z,18.05
2022-10-24T08:39:23.141Z,17.63
2022-10-24T08:42:12.444Z,17.88
2022-10-24T08:44:45.700Z,17.23
2022-10-24T08:47:42.220Z,17.00
2022-10-24T08:50:35.054Z,20.10
2022-10-24T08:53:17.585Z,18.70
2022-10-24T08:55:55.479Z,17.67
2022-10-24T08:58:42.237Z,19.13
2022-10-24T09:01:45.347Z,20.20
2022-10-24T09:04:19.519Z,17.67
2022-10-24T09:06:49.075Z,17.67
2022-10-24T09:09:24.642Z,18.50
2022-10-24T09:14:37.737Z,18.70
2022-10-24T09:17:34.285Z,18.60
2022-10-24T09:20:30.342Z,17.50
2022-10-24T09:23:05.215Z,18.65
2022-10-24T09:25:41.461Z,19.38
2022-10-24T09:28:10.321Z,23.65
2022-10-24T09:30:38.359Z,18.48
2022-10-24T09:33:34.970Z,18.30
2022-10-24T09:36:05.103Z,17.67
2022-10-24T09:38:38.930Z,18.60
2022-10-24T09:41:30.060Z,18.38
2022-10-24T09:44:00.856Z,18.52
2022-10-24T09:46:45.936Z,18.45
2022-10-24T09:49:13.932Z,17.90
2022-10-24T09:51:50.277Z,18.98
2022-10-24T09:54:20.440Z,18.30
2022-10-24T09:57:17.956Z,19.90
2022-10-24T10:00:00.320Z,21.05
2022-10-24T10:02:34.810Z,18.95
2022-10-24T10:05:04.804Z,20.13
2022-10-24T10:07:41.189Z,20.50
2022-10-24T10:11:01.563Z,19.80
2022-10-24T10:13:30.193Z,19.08
2022-10-24T10:16:02.388Z,18.67
2022-10-24T10:18:38.624Z,19.52
2022-10-24T10:21:18.325Z,20.13
2022-10-24T10:23:48.095Z,20.02
2022-10-24T10:26:44.057Z,20.67
2022-10-24T10:29:17.367Z,20.63
2022-10-24T10:31:58.033Z,19.33
2022-10-24T10:34:57.033Z,19.88
2022-10-24T10:37:35.892Z,19.40
2022-10-24T10:40:25.441Z,21.15
2022-10-24T10:43:27.395Z,20.00
2022-10-24T10:46:29.689Z,20.92
2022-10-24T10:49:33.161Z,19.65
2022-10-24T10:52:24.570Z,20.50
2022-10-24T10:55:39.796Z,21.65
2022-10-24T10:58:47.209Z,20.23
2022-10-24T11:02:01.062Z,20.85
2022-10-24T11:04:46.925Z,19.85
2022-10-24T11:07:45.035Z,20.15
2022-10-24T11:10:23.376Z,21.02
2022-10-24T11:12:50.878Z,21.58
2022-10-24T11:15:44.389Z,22.10
2022-10-24T11:18:36.796Z,20.48
2022-10-24T11:21:17.805Z,19.52
2022-10-24T11:24:13.789Z,19.92
2022-10-24T11:30:03.465Z,20.40
2022-10-24T11:33:24.301Z,19.40
2022-10-24T11:36:32.406Z,19.13
2022-10-24T11:39:22.879Z,18.80
2022-10-24T11:42:36.252Z,17.85
2022-10-24T11:45:16.186Z,17.92
2022-10-24T11:47:53.323Z,17.48
2022-10-24T11:50:52.697Z,18.33
2022-10-24T11:53:51.412Z,17.70
2022-10-24T11:56:34.793Z,17.52
2022-10-24T11:59:06.656Z,18.83
2022-10-24T12:02:07.296Z,16.98
2022-10-24T12:04:52.600Z,17.80
2022-10-24T12:08:09.529Z,18.55
2022-10-24T12:11:58.638Z,17.08
2022-10-24T12:14:51.580Z,17.85
2022-10-24T12:18:20.696Z,17.55
2022-10-24T12:20:54.220Z,16.98
2022-10-24T12:23:29.411Z,16.83
2022-10-24T12:26:14.900Z,15.88
2022-10-24T12:28:43.530Z,15.45
2022-10-24T12:31:20.911Z,15.80
2022-10-24T12:34:16.102Z,15.85
2022-10-24T12:37:32.749Z,16.55
2022-10-24T12:40:00.377Z,16.98
2022-10-24T12:42:27.891Z,16.77
2022-10-24T12:45:00.787Z,18.30
2022-10-24T12:47:44.172Z,15.82
2022-10-24T12:51:29.216Z,14.40
2022-10-24T12:54:15.063Z,16.38
2022-10-24T12:56:51.407Z,15.57
2022-10-24T12:59:34.227Z,16.65
2022-10-24T13:02:13.797Z,16.00
2022-10-24T13:05:21.055Z,15.85
2022-10-24T13:08:30.452Z,15.70
2022-10-24T13:12:00.104Z,15.13
2022-10-24T13:14:48.419Z,14.80
2022-10-24T13:17:39.418Z,16.45
2022-10-24T13:20:25.170Z,15.93
2022-10-24T13:23:05.321Z,14.30
2022-10-24T13:25:37.988Z,14.68
2022-10-24T13:28:20.300Z,14.80
2022-10-24T13:31:33.830Z,14.95
2022-10-24T13:34:27.821Z,13.75
2022-10-24T13:37:16.550Z,15.02
2022-10-24T13:40:00.648Z,13.43
2022-10-24T13:42:52.218Z,13.13
2022-10-24T13:45:54.151Z,13.88
2022-10-24T13:48:29.445Z,13.77
2022-10-24T13:54:17.222Z,12.50
2022-10-24T13:56:46.788Z,12.52
2022-10-24T13:59:37.779Z,12.30
2022-10-24T14:02:18.256Z,12.32
2022-10-24T14:04:50.660Z,11.57
2022-10-24T14:07:29.505Z,12.40
2022-10-24T14:10:11.374Z,12.05
2022-10-24T14:12:40.245Z,12.90
2022-10-24T14:15:20.989Z,12.13
2022-10-24T14:18:03.887Z,12.52
2022-10-24T14:20:37.599Z,12.40
2022-10-24T14:23:28.329Z,13.52
2022-10-24T14:26:15.909Z,11.90
2022-10-24T14:28:58.927Z,12.55
2022-10-24T14:31:37.975Z,12.30
2022-10-24T14:34:06.542Z,12.88
2022-10-24T14:36:38.358Z,13.93
2022-10-24T14:39:06.220Z,14.32
2022-10-24T14:41:40.455Z,12.55
2022-10-24T14:44:11.549Z,11.02
2022-10-24T14:46:42.636Z,13.48
2022-10-24T14:49:28.208Z,14.00
2022-10-24T14:52:21.487Z,14.45
2022-10-24T14:55:18.393Z,16.40
2022-10-24T14:57:52.354Z,14.48
2022-10-24T15:00:27.140Z,14.77
2022-10-24T15:02:58.497Z,14.30
2022-10-24T15:05:34.036Z,16.00
2022-10-24T15:08:27.289Z,16.13
2022-10-24T15:11:24.531Z,15.52
2022-10-24T15:14:07.444Z,15.75
2022-10-24T15:16:40.672Z,15.80
2022-10-24T15:19:18.059Z,14.68
2022-10-24T15:21:47.877Z,14.73
2022-10-24T15:24:26.320Z,14.73
2022-10-24T15:27:12.837Z,16.05
2022-10-24T15:29:41.127Z,15.65
2022-10-24T15:32:11.369Z,14.30
2022-10-24T15:34:38.611Z,15.25
2022-10-24T15:37:07.673Z,14.50
2022-10-24T15:39:34.913Z,14.50
2022-10-24T15:44:35.313Z,14.20
2022-10-24T15:47:02.773Z,15.25
2022-10-24T15:49:31.413Z,13.93
2022-10-24T15:52:01.614Z,15.52
2022-10-24T15:54:29.261Z,15.75
2022-10-24T15:56:58.620Z,15.85
2022-10-24T15:59:27.738Z,14.48
2022-10-24T16:02:00.163Z,16.25
2022-10-24T16:04:29.037Z,15.60
2022-10-24T16:06:56.414Z,14.57
2022-10-24T16:09:27.486Z,15.02
2022-10-24T16:11:55.141Z,14.52
2022-10-24T16:14:26.112Z,15.77
2022-10-24T16:16:55.181Z,14.75
2022-10-24T16:19:26.318Z,14.63
2022-10-24T16:21:58.365Z,14.65
2022-10-24T16:24:28.129Z,16.55
2022-10-24T16:26:55.772Z,15.50
2022-10-24T16:29:23.066Z,14.93
2022-10-24T16:31:51.300Z,15.50
2022-10-24T16:34:18.593Z,15.68
2022-10-24T16:36:45.879Z,14.85
2022-10-24T16:39:14.471Z,15.68
2022-10-24T16:41:45.831Z,16.13
2022-10-24T16:44:14.333Z,14.63
2022-10-24T16:46:41.612Z,15.20
2022-10-24T16:49:08.801Z,14.93
2022-10-24T16:51:39.283Z,16.13
2022-10-24T16:54:08.921Z,15.55
2022-10-24T16:56:36.084Z,16.15
2022-10-24T16:59:03.254Z,15.68
2022-10-24T17:01:30.828Z,15.80
2022-10-24T17:03:58.049Z,15.30
2022-10-24T17:06:25.215Z,15.27
2022-10-24T17:08:52.600Z,14.82
2022-10-24T17:11:43.684Z,15.55
2022-10-24T17:16:42.506Z,14.93
2022-10-24T17:19:16.202Z,15.48
2022-10-24T17:21:49.298Z,15.85
2022-10-24T17:24:23.032Z,15.27
2022-10-24T17:26:51.267Z,15.23
2022-10-24T17:29:34.574Z,15.18
2022-10-24T17:32:02.149Z,15.40
2022-10-24T17:34:29.664Z,15.23
2022-10-24T17:37:09.890Z,15.55
2022-10-24T17:39:51.281Z,15.93
2022-10-24T17:42:19.689Z,14.63
2022-10-24T17:44:47.639Z,14.27
2022-10-24T17:47:16.136Z,14.85
2022-10-24T17:49:44.819Z,16.40
2022-10-24T17:52:21.598Z,14.88
2022-10-24T17:54:49.027Z,16.05
2022-10-24T17:57:16.269Z,15.75
2022-10-24T17:59:43.555Z,16.05
2022-10-24T18:02:14.901Z,16.15
2022-10-24T18:04:44.531Z,16.70
2022-10-24T18:07:12.023Z,16.35
2022-10-24T18:09:40.030Z,16.80
2022-10-24T18:12:07.484Z,15.93
2022-10-24T18:14:37.529Z,17.75
2022-10-24T18:17:04.823Z,17.15
2022-10-24T18:19:32.181Z,17.17
2022-10-24T18:21:59.441Z,16.45
2022-10-24T18:24:26.704Z,17.13
2022-10-24T18:26:54.045Z,16.95
2022-10-24T18:29:21.286Z,22.67
2022-10-24T18:31:48.631Z,16.80
2022-10-24T18:34:15.782Z,17.67
2022-10-24T18:36:43.651Z,19.50
2022-10-24T18:39:12.373Z,18.73
2022-10-24T18:42:05.970Z,18.33
2022-10-24T18:44:36.256Z,18.38
2022-10-24T18:47:07.680Z,19.35
2022-10-24T18:49:35.909Z,18.73
2022-10-24T18:52:36.434Z,18.88
2022-10-24T18:55:23.077Z,19.02
2022-10-24T18:57:51.503Z,18.55
2022-10-24T19:00:29.186Z,18.63
2022-10-24T19:03:21.625Z,18.50
2022-10-24T19:06:10.446Z,18.98
2022-10-24T19:08:37.865Z,19.25
2022-10-24T19:11:05.369Z,19.55
2022-10-24T19:13:32.834Z,18.98
2022-10-24T19:16:04.139Z,19.08
2022-10-24T19:18:36.259Z,18.77
2022-10-24T19:21:06.835Z,19.20
2022-10-24T19:23:34.078Z,19.45
2022-10-24T19:26:01.333Z,19.90
2022-10-24T19:28:31.477Z,18.13
2022-10-24T19:30:59.134Z,17.98
2022-10-24T19:33:27.973Z,17.33
2022-10-24T19:35:55.682Z,18.80
2022-10-24T19:38:23.060Z,18.05
2022-10-24T19:40:53.941Z,19.23
2022-10-24T19:43:25.442Z,18.23
2022-10-24T19:46:07.586Z,18.48
2022-10-24T19:48:43.930Z,17.48
2022-10-24T19:51:13.429Z,17.02
2022-10-24T19:53:43.774Z,17.92
2022-10-24T19:56:18.141Z,17.30
2022-10-24T19:58:47.374Z,18.38
2022-10-24T20:01:22.284Z,18.20
2022-10-24T20:03:51.679Z,18.23
2022-10-24T20:06:19.742Z,17.48
2022-10-24T20:08:49.159Z,16.77
2022-10-24T20:11:20.388Z,18.50
2022-10-24T20:13:50.408Z,16.45
2022-10-24T20:16:18.594Z,17.40
2022-10-24T20:18:45.881Z,17.65
2022-10-24T20:21:19.481Z,18.13
2022-10-24T20:23:48.720Z,18.20
2022-10-24T20:26:24.544Z,17.55
2022-10-24T20:28:55.315Z,17.42
2022-10-24T20:31:34.910Z,17.10
2022-10-24T20:34:09.555Z,16.65
2022-10-24T20:36:42.105Z,17.07
2022-10-24T20:39:09.907Z,17.65
2022-10-24T20:41:37.904Z,17.80
2022-10-24T20:44:06.917Z,17.15
2022-10-24T20:46:36.160Z,18.60
2022-10-24T20:49:03.861Z,17.67
2022-10-24T20:51:31.508Z,17.17
2022-10-24T20:53:58.903Z,16.88
2022-10-24T20:56:26.718Z,17.02
2022-10-24T20:58:55.937Z,17.17
2022-10-24T21:01:27.779Z,18.02
2022-10-24T21:03:57.856Z,17.30
2022-10-24T21:06:33.262Z,18.05
2022-10-24T21:09:05.125Z,16.92
2022-10-24T21:11:34.846Z,17.25
2022-10-24T21:14:07.785Z,18.90
2022-10-24T21:16:35.696Z,19.15
2022-10-24T21:19:03.946Z,18.67
2022-10-24T21:21:31.337Z,19.02
2022-10-24T21:24:04.457Z,19.30
2022-10-24T21:26:39.994Z,18.38
2022-10-24T21:29:27.622Z,17.77
2022-10-24T21:31:56.421Z,18.13
2022-10-24T21:34:23.841Z,19.10
2022-10-24T21:36:51.029Z,19.95
2022-10-24T21:39:18.439Z,18.75
2022-10-24T21:41:45.705Z,16.80
2022-10-24T21:44:14.291Z,17.20
2022-10-24T21:46:41.607Z,18.92
2022-10-24T21:49:10.439Z,17.65
2022-10-24T21:51:41.014Z,16.13
2022-10-24T21:54:22.536Z,16.10
2022-10-24T21:56:50.122Z,15.95
2022-10-24T21:59:20.840Z,16.80
2022-10-24T22:01:50.956Z,16.38
2022-10-24T22:04:19.469Z,16.52
2022-10-24T22:06:47.860Z,17.55
2022-10-24T22:09:20.293Z,18.42
2022-10-24T22:11:47.638Z,17.85
2022-10-24T22:14:17.051Z,15.10
2022-10-24T22:16:45.083Z,12.32
2022-10-24T22:19:14.200Z,12.23
2022-10-24T22:21:49.077Z,11.23
2022-10-24T22:24:24.289Z,10.27
2022-10-24T22:26:53.003Z,9.77
2022-10-24T22:29:24.037Z,10.35
2022-10-24T22:31:53.327Z,10.32
2022-10-24T22:34:26.194Z,10.10
2022-10-24T22:37:23.668Z,9.77
2022-10-24T22:39:51.322Z,9.75
2022-10-24T22:42:20.275Z,8.80
2022-10-24T22:44:48.836Z,8.27
2022-10-24T22:47:43.845Z,8.07
2022-10-24T22:50:42.412Z,8.52
2022-10-24T22:53:14.493Z,8.93
2022-10-24T22:56:13.431Z,9.27
2022-10-24T22:58:44.203Z,10.30
2022-10-24T23:02:00.080Z,9.60
2022-10-24T23:04:51.507Z,9.95
2022-10-24T23:07:48.551Z,8.75
2022-10-24T23:10:23.128Z,8.13
2022-10-24T23:12:51.797Z,9.05
2022-10-24T23:15:21.583Z,9.02
2022-10-24T23:17:50.239Z,9.10
2022-10-24T23:20:42.995Z,10.65
2022-10-24T23:23:28.305Z,10.23
2022-10-24T23:26:28.246Z,8.05
2022-10-24T23:29:30.532Z,6.72
2022-10-24T23:31:58.520Z,5.30
2022-10-24T23:34:27.026Z,5.47
2022-10-24T23:37:04.076Z,5.38
2022-10-24T23:39:36.163Z,4.60
2022-10-24T23:42:04.824Z,4.60
2022-10-24T23:44:32.852Z,5.03
2022-10-24T23:47:12.947Z,5.10
2022-10-24T23:50:34.300Z,4.80
2022-10-24T23:53:50.199Z,4.95
2022-10-24T23:56:22.653Z,5.22
2022-10-24T23:58:51.019Z,4.90
